createdAt,value
2019-02-04T00:01:44.018Z,11.67
2019-02-04T00:04:12.563Z,11.57
2019-02-04T00:06:41.137Z,12.00
2019-02-04T00:09:09.761Z,12.33
2019-02-04T00:11:38.314Z,12.73
2019-02-04T00:14:07.286Z,12.70
2019-02-04T00:16:40.809Z,12.07
2019-02-04T00:19:06.219Z,13.13
2019-02-04T00:21:34.788Z,12.47
2019-02-04T00:24:03.341Z,12.73
2019-02-04T00:26:31.898Z,13.63
2019-02-04T00:29:00.855Z,13.40
2019-02-04T00:31:29.443Z,12.77
2019-02-04T00:33:58.008Z,13.37
2019-02-04T00:36:26.569Z,14.50
2019-02-04T00:38:55.126Z,13.50
2019-02-04T00:41:23.686Z,13.70
2019-02-04T00:43:52.336Z,13.60
2019-02-04T00:46:20.965Z,13.60
2019-02-04T00:48:49.524Z,13.03
2019-02-04T00:51:18.144Z,15.40
2019-02-04T00:53:46.767Z,13.63
2019-02-04T00:56:15.356Z,15.77
2019-02-04T00:58:43.934Z,17.30
2019-02-04T01:01:12.495Z,16.10
2019-02-04T01:03:41.052Z,17.17
2019-02-04T01:06:09.683Z,16.10
2019-02-04T01:08:38.259Z,17.07
2019-02-04T01:11:06.760Z,17.10
2019-02-04T01:13:35.332Z,15.63
2019-02-04T01:16:04.255Z,15.63
2019-02-04T01:18:32.806Z,12.93
2019-02-04T01:21:01.429Z,14.07
2019-02-04T01:23:29.988Z,12.57
2019-02-04T01:25:58.556Z,13.20
2019-02-04T01:28:27.126Z,11.57
2019-02-04T01:30:55.854Z,11.37
2019-02-04T01:33:24.414Z,10.63
2019-02-04T01:35:53.050Z,10.67
2019-02-04T01:38:21.605Z,10.50
2019-02-04T01:40:50.255Z,9.70
2019-02-04T01:43:18.875Z,10.73
2019-02-04T01:45:47.722Z,11.53
2019-02-04T01:48:16.270Z,10.73
2019-02-04T01:50:44.847Z,11.30
2019-02-04T01:53:13.385Z,10.87
2019-02-04T01:55:41.945Z,10.60
2019-02-04T01:58:10.530Z,10.77
2019-02-04T02:00:39.290Z,9.90
2019-02-04T02:03:07.860Z,9.50
2019-02-04T02:05:36.426Z,10.83
2019-02-04T02:08:05.000Z,10.27
2019-02-04T02:10:33.543Z,9.80
2019-02-04T02:13:02.137Z,10.10
2019-02-04T02:15:31.022Z,11.77
2019-02-04T02:17:59.606Z,11.00
2019-02-04T02:20:28.624Z,10.80
2019-02-04T02:22:57.241Z,11.07
2019-02-04T02:25:25.803Z,10.63
2019-02-04T02:27:54.491Z,10.40
2019-02-04T02:30:24.699Z,10.87
2019-02-04T02:32:53.293Z,10.43
2019-02-04T02:35:21.883Z,10.70
2019-02-04T02:37:50.496Z,10.80
2019-02-04T02:40:26.152Z,10.83
2019-02-04T02:42:54.751Z,10.57
2019-02-04T02:45:23.303Z,11.33
2019-02-04T02:47:51.889Z,10.43
2019-02-04T02:50:20.531Z,10.00
2019-02-04T02:52:49.081Z,11.40
2019-02-04T02:55:17.698Z,10.20
2019-02-04T02:57:46.342Z,9.93
2019-02-04T03:00:19.110Z,10.63
2019-02-04T03:02:47.763Z,10.30
2019-02-04T03:05:16.325Z,10.27
2019-02-04T03:07:44.954Z,11.03
2019-02-04T03:10:14.884Z,9.93
2019-02-04T03:12:43.447Z,11.03
2019-02-04T03:15:12.012Z,9.80
2019-02-04T03:17:51.655Z,10.17
2019-02-04T03:20:10.874Z,10.07
2019-02-04T03:22:39.432Z,10.67
2019-02-04T03:25:08.574Z,9.97
2019-02-04T03:27:37.192Z,9.53
2019-02-04T03:30:07.746Z,9.50
2019-02-04T03:32:36.387Z,9.33
2019-02-04T03:35:04.982Z,8.97
2019-02-04T03:37:33.515Z,9.30
2019-02-04T03:40:02.126Z,9.60
2019-02-04T03:42:30.709Z,8.50
2019-02-04T03:44:59.263Z,8.43
2019-02-04T03:47:27.772Z,9.37
2019-02-04T03:49:56.404Z,8.10
2019-02-04T03:52:24.950Z,7.53
2019-02-04T03:54:53.527Z,8.00
2019-02-04T03:57:22.248Z,8.03
2019-02-04T03:59:50.802Z,8.07
2019-02-04T04:02:19.367Z,7.77
2019-02-04T04:04:47.918Z,8.07
2019-02-04T04:07:16.488Z,7.90
2019-02-04T04:09:45.063Z,7.97
2019-02-04T04:12:13.618Z,7.90
2019-02-04T04:14:42.172Z,8.20
2019-02-04T04:17:10.759Z,7.73
2019-02-04T04:19:39.310Z,8.17
2019-02-04T04:22:07.854Z,7.63
2019-02-04T04:24:36.442Z,8.10
2019-02-04T04:27:04.989Z,8.23
2019-02-04T04:29:33.458Z,8.27
2019-02-04T04:32:02.201Z,7.83
2019-02-04T04:34:30.768Z,7.67
2019-02-04T04:36:59.315Z,7.83
2019-02-04T04:39:27.889Z,7.47
2019-02-04T04:41:56.473Z,7.40
2019-02-04T04:44:25.298Z,7.83
2019-02-04T04:46:53.871Z,7.03
2019-02-04T04:49:22.424Z,7.57
2019-02-04T04:51:51.306Z,6.50
2019-02-04T04:54:19.879Z,7.57
2019-02-04T04:56:48.473Z,7.43
2019-02-04T04:59:17.416Z,7.03
2019-02-04T05:01:46.024Z,7.43
2019-02-04T05:04:14.574Z,7.80
2019-02-04T05:06:43.123Z,7.90
2019-02-04T05:09:11.689Z,8.20
2019-02-04T05:11:40.242Z,7.73
2019-02-04T05:14:09.268Z,7.63
2019-02-04T05:16:37.830Z,7.27
2019-02-04T05:19:06.401Z,8.60
2019-02-04T05:21:35.022Z,7.70
2019-02-04T05:24:03.654Z,8.33
2019-02-04T05:26:32.242Z,7.90
2019-02-04T05:29:01.550Z,7.37
2019-02-04T05:31:30.121Z,8.43
2019-02-04T05:33:58.689Z,8.17
2019-02-04T05:36:27.255Z,8.53
2019-02-04T05:38:55.796Z,7.83
2019-02-04T05:41:24.430Z,8.30
2019-02-04T05:43:53.314Z,8.07
2019-02-04T05:46:21.879Z,7.80
2019-02-04T05:48:50.602Z,7.80
2019-02-04T05:51:19.216Z,7.50
2019-02-04T05:53:47.784Z,9.03
2019-02-04T05:56:16.369Z,7.80
2019-02-04T05:58:44.945Z,8.03
2019-02-04T06:01:13.565Z,8.60
2019-02-04T06:03:42.203Z,9.00
2019-02-04T06:06:10.762Z,8.70
2019-02-04T06:08:39.298Z,8.63
2019-02-04T06:11:07.869Z,9.17
2019-02-04T06:13:36.425Z,8.70
2019-02-04T06:16:05.034Z,8.80
2019-02-04T06:18:33.607Z,9.10
2019-02-04T06:21:02.154Z,8.87
2019-02-04T06:23:33.436Z,8.50
2019-02-04T06:26:02.036Z,9.33
2019-02-04T06:28:30.586Z,9.10
2019-02-04T06:30:59.138Z,9.93
2019-02-04T06:33:27.726Z,8.90
2019-02-04T06:35:56.262Z,8.37
2019-02-04T06:38:24.816Z,8.93
2019-02-04T06:40:53.446Z,9.30
2019-02-04T06:43:21.978Z,7.33
2019-02-04T06:45:50.812Z,8.30
2019-02-04T06:48:19.402Z,8.97
2019-02-04T06:50:50.816Z,8.20
2019-02-04T06:53:18.211Z,8.10
2019-02-04T06:55:46.778Z,9.07
2019-02-04T06:58:15.358Z,8.30
2019-02-04T07:00:44.182Z,8.60
2019-02-04T07:03:12.754Z,8.60
2019-02-04T07:05:44.013Z,8.57
2019-02-04T07:08:11.593Z,8.40
2019-02-04T07:10:40.179Z,7.60
2019-02-04T07:13:08.731Z,8.57
2019-02-04T07:15:37.550Z,8.07
2019-02-04T07:18:06.131Z,8.67
2019-02-04T07:20:36.695Z,8.43
2019-02-04T07:23:05.258Z,9.27
2019-02-04T07:25:33.895Z,9.67
2019-02-04T07:28:02.453Z,9.67
2019-02-04T07:30:31.069Z,9.80
2019-02-04T07:32:59.641Z,8.97
2019-02-04T07:35:28.192Z,8.53
2019-02-04T07:37:56.818Z,9.47
2019-02-04T07:40:28.958Z,9.13
2019-02-04T07:42:57.543Z,8.97
2019-02-04T07:45:26.101Z,8.70
2019-02-04T07:47:54.995Z,8.77
2019-02-04T07:50:23.563Z,9.03
2019-02-04T07:52:52.114Z,9.40
2019-02-04T07:55:20.770Z,9.23
2019-02-04T07:57:49.377Z,9.63
2019-02-04T08:00:19.254Z,8.47
2019-02-04T08:02:47.842Z,10.00
2019-02-04T08:05:16.398Z,8.83
2019-02-04T08:07:44.982Z,9.17
2019-02-04T08:10:13.564Z,9.63
2019-02-04T08:12:42.167Z,9.10
2019-02-04T08:15:12.359Z,8.70
2019-02-04T08:17:40.900Z,9.87
2019-02-04T08:20:09.515Z,8.97
2019-02-04T08:22:38.027Z,8.53
2019-02-04T08:25:07.365Z,9.00
2019-02-04T08:27:35.902Z,9.27
2019-02-04T08:30:05.103Z,8.83
2019-02-04T08:32:34.023Z,8.60
2019-02-04T08:35:02.574Z,9.17
2019-02-04T08:37:31.223Z,9.03
2019-02-04T08:39:59.757Z,8.47
2019-02-04T08:42:28.314Z,8.73
2019-02-04T08:44:56.914Z,8.47
2019-02-04T08:47:25.475Z,8.80
2019-02-04T08:49:58.367Z,8.83
2019-02-04T08:52:24.478Z,7.83
2019-02-04T08:54:53.150Z,7.50
2019-02-04T08:57:21.700Z,7.90
2019-02-04T08:59:50.261Z,8.07
2019-02-04T09:02:18.910Z,8.40
2019-02-04T09:04:47.799Z,7.40
2019-02-04T09:07:16.406Z,7.90
2019-02-04T09:09:45.019Z,7.90
2019-02-04T09:12:13.785Z,8.17
2019-02-04T09:14:42.375Z,7.50
2019-02-04T09:17:11.036Z,7.80
2019-02-04T09:19:39.500Z,7.50
2019-02-04T09:22:08.243Z,8.00
2019-02-04T09:24:36.853Z,7.60
2019-02-04T09:27:05.406Z,7.77
2019-02-04T09:29:33.978Z,8.63
2019-02-04T09:32:02.599Z,8.30
2019-02-04T09:34:31.150Z,8.00
2019-02-04T09:37:00.099Z,8.40
2019-02-04T09:39:29.018Z,7.97
2019-02-04T09:41:57.558Z,7.33
2019-02-04T09:44:26.122Z,8.00
2019-02-04T09:46:54.670Z,8.23
2019-02-04T09:49:23.205Z,7.43
2019-02-04T09:51:51.813Z,7.87
2019-02-04T09:54:20.430Z,7.70
2019-02-04T09:56:49.007Z,7.40
2019-02-04T09:59:17.639Z,8.47
2019-02-04T10:01:46.192Z,7.80
2019-02-04T10:04:14.734Z,8.90
2019-02-04T10:06:43.298Z,7.93
2019-02-04T10:09:12.217Z,8.73
2019-02-04T10:11:40.769Z,8.87
2019-02-04T10:14:09.323Z,8.53
2019-02-04T10:16:37.874Z,7.93
2019-02-04T10:19:06.486Z,8.10
2019-02-04T10:21:35.120Z,7.90
2019-02-04T10:24:03.990Z,8.50
2019-02-04T10:26:32.570Z,8.10
2019-02-04T10:29:01.111Z,8.50
2019-02-04T10:31:29.673Z,8.13
2019-02-04T10:33:58.294Z,8.40
2019-02-04T10:36:26.957Z,8.43
2019-02-04T10:38:55.947Z,8.57
2019-02-04T10:41:24.521Z,7.93
2019-02-04T10:43:53.122Z,8.40
2019-02-04T10:46:21.755Z,8.10
2019-02-04T10:48:50.403Z,8.00
2019-02-04T10:51:19.023Z,7.27
2019-02-04T10:53:47.738Z,8.37
2019-02-04T10:56:16.508Z,7.60
2019-02-04T10:58:45.110Z,8.47
2019-02-04T11:01:13.700Z,7.50
2019-02-04T11:03:42.351Z,9.03
2019-02-04T11:06:10.936Z,10.13
2019-02-04T11:08:39.548Z,9.03
2019-02-04T11:11:08.330Z,8.73
2019-02-04T11:13:36.918Z,9.27
2019-02-04T11:16:05.599Z,9.20
2019-02-04T11:18:34.217Z,10.07
2019-02-04T11:21:02.861Z,9.87
2019-02-04T11:23:31.467Z,9.97
2019-02-04T11:26:00.331Z,10.40
2019-02-04T11:28:28.907Z,9.97
2019-02-04T11:31:01.387Z,10.13
2019-02-04T11:33:30.093Z,11.20
2019-02-04T11:35:58.647Z,10.43
2019-02-04T11:38:27.277Z,11.40
2019-02-04T11:40:56.171Z,10.73
2019-02-04T11:43:24.914Z,10.90
2019-02-04T11:45:55.094Z,12.60
2019-02-04T11:48:24.550Z,12.37
2019-02-04T11:50:53.193Z,12.30
2019-02-04T11:53:32.590Z,11.17
2019-02-04T11:55:52.169Z,13.50
2019-02-04T11:58:20.828Z,12.67
2019-02-04T12:00:49.394Z,12.30
2019-02-04T12:03:17.985Z,13.73
2019-02-04T12:05:46.562Z,12.87
2019-02-04T12:08:16.324Z,13.60
2019-02-04T12:10:46.731Z,13.80
2019-02-04T12:13:15.296Z,15.10
2019-02-04T12:15:43.844Z,13.43
2019-02-04T12:18:12.423Z,15.40
2019-02-04T12:20:40.994Z,15.43
2019-02-04T12:23:09.719Z,14.83
2019-02-04T12:25:38.603Z,16.00
2019-02-04T12:28:07.227Z,15.53
2019-02-04T12:30:36.840Z,14.93
2019-02-04T12:33:06.164Z,14.60
2019-02-04T12:35:34.732Z,15.47
2019-02-04T12:38:03.461Z,15.93
2019-02-04T12:40:32.403Z,15.20
2019-02-04T12:43:00.984Z,14.77
2019-02-04T12:45:30.103Z,14.17
2019-02-04T12:48:00.856Z,14.43
2019-02-04T12:50:29.043Z,14.37
2019-02-04T12:52:57.595Z,14.23
2019-02-04T12:55:27.108Z,15.63
2019-02-04T12:57:55.713Z,15.57
2019-02-04T13:00:24.908Z,15.13
2019-02-04T13:02:53.482Z,14.50
2019-02-04T13:05:23.369Z,14.77
2019-02-04T13:07:51.909Z,15.20
2019-02-04T13:10:20.763Z,14.13
2019-02-04T13:12:49.343Z,13.50
2019-02-04T13:15:18.842Z,13.90
2019-02-04T13:17:47.435Z,14.57
2019-02-04T13:20:16.537Z,14.13
2019-02-04T13:22:45.070Z,14.80
2019-02-04T13:25:15.756Z,15.07
2019-02-04T13:27:44.316Z,14.60
2019-02-04T13:30:13.580Z,14.70
2019-02-04T13:32:42.145Z,15.47
2019-02-04T13:35:10.803Z,16.97
2019-02-04T13:37:39.351Z,14.97
2019-02-04T13:40:09.421Z,15.63
2019-02-04T13:42:38.051Z,15.53
2019-02-04T13:45:07.226Z,16.93
2019-02-04T13:47:35.823Z,16.07
2019-02-04T13:50:04.986Z,16.23
2019-02-04T13:52:33.769Z,16.57
2019-02-04T13:55:02.744Z,16.03
2019-02-04T13:57:31.339Z,16.60
2019-02-04T14:00:01.452Z,16.43
2019-02-04T14:02:30.019Z,15.97
2019-02-04T14:04:58.649Z,15.63
2019-02-04T14:07:27.207Z,16.37
2019-02-04T14:09:59.015Z,16.40
2019-02-04T14:12:26.457Z,16.47
2019-02-04T14:14:55.150Z,16.67
2019-02-04T14:17:24.484Z,16.03
2019-02-04T14:19:53.158Z,16.03
2019-02-04T14:22:21.778Z,17.17
2019-02-04T14:24:50.744Z,16.90
2019-02-04T14:27:19.295Z,17.07
2019-02-04T14:29:47.871Z,16.30
2019-02-04T14:32:16.466Z,17.73
2019-02-04T14:34:45.130Z,16.77
2019-02-04T14:37:13.696Z,16.60
2019-02-04T14:39:42.546Z,16.33
2019-02-04T14:42:12.573Z,16.33
2019-02-04T14:44:49.755Z,17.20
2019-02-04T14:47:35.791Z,16.73
2019-02-04T14:50:29.578Z,16.33
2019-02-04T14:53:13.171Z,17.80
2019-02-04T14:55:50.694Z,17.17
2019-02-04T14:58:38.451Z,16.40
2019-02-04T15:01:35.240Z,15.37
2019-02-04T15:04:21.426Z,15.87
2019-02-04T15:07:10.134Z,16.60
2019-02-04T15:09:57.395Z,16.63
2019-02-04T15:12:53.989Z,16.53
2019-02-04T15:15:29.916Z,16.60
2019-02-04T15:18:26.382Z,16.43
2019-02-04T15:21:32.273Z,16.67
2019-02-04T15:24:10.077Z,16.03
2019-02-04T15:26:57.828Z,16.23
2019-02-04T15:29:46.175Z,16.63
2019-02-04T15:32:29.349Z,16.43
2019-02-04T15:35:18.937Z,16.43
2019-02-04T15:38:06.566Z,16.97
2019-02-04T15:40:41.747Z,16.10
2019-02-04T15:43:47.626Z,17.27
2019-02-04T15:46:18.866Z,16.93
2019-02-04T15:49:12.558Z,17.40
2019-02-04T15:51:44.310Z,17.20
2019-02-04T15:54:12.874Z,17.40
2019-02-04T15:56:41.486Z,18.13
2019-02-04T15:59:10.102Z,17.80
2019-02-04T16:01:38.742Z,18.80
2019-02-04T16:04:24.796Z,20.27
2019-02-04T16:06:53.342Z,18.57
2019-02-04T16:09:21.914Z,19.10
2019-02-04T16:11:50.489Z,19.00
2019-02-04T16:14:19.046Z,19.67
2019-02-04T16:16:47.794Z,18.60
2019-02-04T16:19:16.425Z,18.83
2019-02-04T16:21:45.051Z,19.27
2019-02-04T16:24:13.618Z,20.03
2019-02-04T16:26:42.520Z,18.53
2019-02-04T16:29:11.075Z,19.77
2019-02-04T16:31:39.622Z,19.70
2019-02-04T16:34:08.195Z,20.07
2019-02-04T16:36:36.670Z,20.10
2019-02-04T16:39:07.195Z,20.80
2019-02-04T16:41:35.847Z,20.37
2019-02-04T16:44:04.474Z,22.10
2019-02-04T16:46:33.007Z,22.43
2019-02-04T16:49:01.770Z,22.17
2019-02-04T16:51:30.314Z,22.97
2019-02-04T16:53:58.963Z,22.07
2019-02-04T16:56:27.726Z,23.63
2019-02-04T16:58:56.389Z,22.90
2019-02-04T17:01:24.943Z,23.93
2019-02-04T17:03:53.795Z,24.03
2019-02-04T17:06:22.413Z,24.00
2019-02-04T17:08:51.044Z,24.37
2019-02-04T17:11:19.694Z,24.70
2019-02-04T17:13:48.278Z,26.40
2019-02-04T17:16:16.846Z,26.00
2019-02-04T17:18:45.422Z,27.47
2019-02-04T17:21:15.001Z,25.53
2019-02-04T17:23:43.566Z,27.03
2019-02-04T17:26:12.182Z,27.27
2019-02-04T17:28:40.806Z,29.23
2019-02-04T17:31:09.430Z,28.97
2019-02-04T17:33:37.986Z,28.60
2019-02-04T17:36:06.850Z,28.30
2019-02-04T17:38:35.411Z,29.73
2019-02-04T17:41:03.981Z,29.43
2019-02-04T17:43:32.575Z,27.70
2019-02-04T17:46:01.182Z,28.23
2019-02-04T17:48:29.754Z,28.97
2019-02-04T17:50:58.627Z,28.97
2019-02-04T17:53:34.441Z,30.20
2019-02-04T17:55:57.562Z,30.67
2019-02-04T17:58:26.113Z,31.60
2019-02-04T18:00:54.830Z,29.97
2019-02-04T18:03:23.678Z,30.97
2019-02-04T18:05:52.531Z,30.43
2019-02-04T18:08:21.086Z,31.50
2019-02-04T18:10:49.651Z,30.93
2019-02-04T18:13:18.211Z,30.87
2019-02-04T18:15:46.778Z,32.07
2019-02-04T18:18:15.360Z,32.93
2019-02-04T18:20:43.926Z,32.63
2019-02-04T18:23:12.489Z,31.40
2019-02-04T18:25:41.064Z,31.37
2019-02-04T18:28:09.622Z,31.87
2019-02-04T18:30:38.188Z,31.40
2019-02-04T18:33:06.870Z,31.23
2019-02-04T18:35:35.818Z,31.53
2019-02-04T18:38:04.459Z,32.33
2019-02-04T18:40:33.078Z,32.00
2019-02-04T18:43:01.739Z,31.93
2019-02-04T18:45:30.478Z,33.67
2019-02-04T18:47:59.122Z,32.17
2019-02-04T18:50:27.960Z,33.90
2019-02-04T18:52:56.505Z,34.40
2019-02-04T18:55:26.286Z,35.70
2019-02-04T18:57:55.311Z,34.97
2019-02-04T19:00:24.695Z,33.77
2019-02-04T19:02:53.279Z,34.43
2019-02-04T19:05:22.126Z,34.23
2019-02-04T19:07:50.685Z,35.77
2019-02-04T19:10:19.776Z,35.80
2019-02-04T19:12:48.335Z,37.53
2019-02-04T19:15:17.708Z,36.27
2019-02-04T19:17:46.603Z,36.57
2019-02-04T19:20:16.265Z,36.17
2019-02-04T19:22:44.823Z,36.83
2019-02-04T19:25:13.686Z,48.50
2019-02-04T19:27:42.282Z,39.93
2019-02-04T19:30:13.710Z,35.27
2019-02-04T19:32:42.389Z,37.10
2019-02-04T19:35:11.315Z,37.67
2019-02-04T19:37:39.890Z,37.93
2019-02-04T19:40:08.502Z,37.50
2019-02-04T19:42:37.071Z,37.53
2019-02-04T19:45:07.261Z,38.60
2019-02-04T19:47:35.840Z,38.87
2019-02-04T19:50:05.122Z,38.27
2019-02-04T19:52:33.732Z,41.40
2019-02-04T19:55:02.389Z,38.07
2019-02-04T19:57:30.994Z,41.50
2019-02-04T19:59:59.600Z,42.50
2019-02-04T20:02:28.157Z,40.30
2019-02-04T20:04:56.749Z,43.43
2019-02-04T20:07:25.619Z,42.57
2019-02-04T20:09:54.200Z,41.37
2019-02-04T20:12:22.818Z,42.07
2019-02-04T20:14:51.382Z,41.40
2019-02-04T20:17:19.931Z,41.77
2019-02-04T20:19:48.500Z,41.63
2019-02-04T20:22:17.376Z,42.10
2019-02-04T20:24:45.952Z,43.07
2019-02-04T20:27:14.571Z,43.83
2019-02-04T20:29:43.158Z,41.93
2019-02-04T20:32:11.721Z,42.03
2019-02-04T20:34:40.284Z,42.00
2019-02-04T20:37:08.954Z,41.53
2019-02-04T20:39:37.799Z,43.03
2019-02-04T20:42:06.560Z,44.33
2019-02-04T20:44:35.222Z,44.60
2019-02-04T20:47:03.813Z,45.17
2019-02-04T20:49:32.376Z,44.53
2019-02-04T20:52:00.952Z,47.40
2019-02-04T20:54:29.823Z,43.97
2019-02-04T20:56:58.413Z,44.50
2019-02-04T20:59:27.052Z,46.83
2019-02-04T21:01:55.650Z,45.40
2019-02-04T21:04:24.233Z,47.43
2019-02-04T21:06:56.062Z,48.03
2019-02-04T21:09:23.130Z,47.00
2019-02-04T21:11:51.713Z,47.13
2019-02-04T21:14:20.322Z,48.50
2019-02-04T21:16:48.944Z,47.43
2019-02-04T21:19:17.494Z,48.97
2019-02-04T21:21:46.056Z,48.53
2019-02-04T21:24:14.715Z,47.80
2019-02-04T21:26:43.463Z,49.87
2019-02-04T21:29:12.048Z,49.17
2019-02-04T21:31:40.827Z,50.33
2019-02-04T21:34:09.383Z,47.70
2019-02-04T21:36:37.948Z,49.07
2019-02-04T21:39:07.224Z,48.33
2019-02-04T21:41:36.152Z,49.17
2019-02-04T21:44:04.871Z,49.80
2019-02-04T21:46:33.444Z,50.93
2019-02-04T21:49:02.123Z,49.63
2019-02-04T21:51:30.759Z,50.13
2019-02-04T21:53:59.347Z,49.80
2019-02-04T21:56:27.903Z,49.07
2019-02-04T21:58:56.567Z,49.37
2019-02-04T22:01:25.227Z,47.97
2019-02-04T22:03:53.791Z,50.43
2019-02-04T22:06:22.375Z,50.67
2019-02-04T22:08:51.026Z,50.37
2019-02-04T22:11:19.588Z,49.10
2019-02-04T22:13:48.182Z,49.77
